createdAt,value
2019-04-22T00:03:10.683Z,96.50
2019-04-22T00:08:30.934Z,96.90
2019-04-22T00:13:25.960Z,97.30
2019-04-22T00:18:19.931Z,97.50
2019-04-22T00:23:13.244Z,97.80
2019-04-22T00:28:15.756Z,98.40
2019-04-22T00:33:08.014Z,98.60
2019-04-22T00:38:12.829Z,99.00
2019-04-22T00:43:11.324Z,99.40
2019-04-22T00:48:09.241Z,99.60
2019-04-22T00:53:04.561Z,99.90
2019-04-22T00:57:54.642Z,99.90
2019-04-22T01:02:54.576Z,99.90
2019-04-22T01:07:49.179Z,99.90
2019-04-22T01:12:44.389Z,99.90
2019-04-22T01:17:43.516Z,99.90
2019-04-22T01:22:32.972Z,99.90
2019-04-22T01:27:22.205Z,99.90
2019-04-22T01:32:13.177Z,99.90
2019-04-22T01:37:19.762Z,99.90
2019-04-22T01:42:18.741Z,99.90
2019-04-22T01:47:21.283Z,99.90
2019-04-22T01:52:15.461Z,99.90
2019-04-22T01:57:03.641Z,99.90
2019-04-22T02:02:09.268Z,99.90
2019-04-22T02:07:03.217Z,99.90
2019-04-22T02:12:00.225Z,99.90
2019-04-22T02:16:56.163Z,99.90
2019-04-22T02:21:48.803Z,99.90
2019-04-22T02:26:49.912Z,99.90
2019-04-22T02:31:45.338Z,99.90
2019-04-22T02:36:45.154Z,99.90
2019-04-22T03:06:29.580Z,99.90
2019-04-22T03:11:12.483Z,99.90
2019-04-22T03:16:17.738Z,99.90
2019-04-22T03:26:11.480Z,99.90
2019-04-22T03:32:01.956Z,99.90
2019-04-22T03:37:03.612Z,99.90
2019-04-22T03:41:39.301Z,99.90
2019-04-22T03:46:21.450Z,99.90
2019-04-22T03:51:26.861Z,99.90
2019-04-22T03:56:18.808Z,99.90
2019-04-22T04:01:19.711Z,99.90
2019-04-22T04:06:06.647Z,99.90
2019-04-22T04:10:53.513Z,99.90
2019-04-22T04:15:53.547Z,99.90
2019-04-22T04:21:09.037Z,99.90
2019-04-22T04:30:36.589Z,99.90
2019-04-22T04:45:40.002Z,99.90
2019-04-22T04:50:27.321Z,99.90
2019-04-22T05:15:11.605Z,99.90
2019-04-22T05:20:07.357Z,99.90
2019-04-22T05:24:59.776Z,99.90
2019-04-22T05:30:08.811Z,99.90
2019-04-22T05:34:48.622Z,99.90
2019-04-22T05:39:43.658Z,99.90
2019-04-22T05:44:44.071Z,99.90
2019-04-22T05:49:31.259Z,96.90
2019-04-22T05:59:28.884Z,93.90
2019-04-22T06:04:39.115Z,93.40
2019-04-22T06:09:20.539Z,92.70
2019-04-22T06:14:14.981Z,92.60
2019-04-22T06:19:16.818Z,91.60
2019-04-22T06:24:10.869Z,91.20
2019-04-22T06:29:01.336Z,90.60
2019-04-22T06:34:02.312Z,90.10
2019-04-22T06:38:55.282Z,88.10
2019-04-22T06:43:51.474Z,87.50
2019-04-22T06:48:43.992Z,85.90
2019-04-22T06:53:40.561Z,84.40
2019-04-22T06:58:36.578Z,83.00
2019-04-22T07:13:32.013Z,78.40
2019-04-22T07:18:28.730Z,77.00
2019-04-22T07:23:21.445Z,76.80
2019-04-22T07:28:11.233Z,72.30
2019-04-22T07:38:04.677Z,66.90
2019-04-22T07:43:02.514Z,65.10
2019-04-22T07:47:58.946Z,63.60
2019-04-22T07:52:45.013Z,62.40
2019-04-22T07:57:39.256Z,60.60
2019-04-22T08:02:38.008Z,59.50
2019-04-22T08:07:36.304Z,61.50
2019-04-22T08:12:36.014Z,59.10
2019-04-22T08:17:45.138Z,58.90
2019-04-22T08:22:14.225Z,59.00
2019-04-22T08:27:15.433Z,57.90
2019-04-22T08:32:15.067Z,56.10
2019-04-22T08:37:36.590Z,57.80
2019-04-22T08:41:57.604Z,57.00
2019-04-22T08:47:04.744Z,56.10
2019-04-22T08:51:59.027Z,55.10
2019-04-22T08:56:56.948Z,54.30
2019-04-22T09:01:41.940Z,52.00
2019-04-22T09:07:06.028Z,50.80
2019-04-22T09:11:41.774Z,50.50
2019-04-22T09:16:37.325Z,49.20
2019-04-22T09:21:32.634Z,48.40
2019-04-22T09:26:30.696Z,48.30
2019-04-22T09:31:19.616Z,48.60
2019-04-22T09:36:23.025Z,46.70
2019-04-22T09:41:13.954Z,47.10
2019-04-22T09:46:19.188Z,47.40
2019-04-22T09:51:09.829Z,46.30
2019-04-22T09:56:05.881Z,45.90
2019-04-22T10:01:38.587Z,45.20
2019-04-22T10:11:24.029Z,45.50
2019-04-22T10:16:10.465Z,45.40
2019-04-22T10:21:12.330Z,45.40
2019-04-22T10:25:59.111Z,45.30
2019-04-22T10:30:52.207Z,45.30
2019-04-22T10:35:30.303Z,46.10
2019-04-22T10:40:50.303Z,45.50
2019-04-22T10:45:44.280Z,44.50
2019-04-22T10:50:41.335Z,44.40
2019-04-22T10:55:35.104Z,42.90
2019-04-22T11:00:29.323Z,43.20
2019-04-22T11:05:24.081Z,43.40
2019-04-22T11:10:35.131Z,44.10
2019-04-22T11:15:13.934Z,43.60
2019-04-22T11:20:07.986Z,43.60
2019-04-22T11:25:01.480Z,42.30
2019-04-22T11:29:55.423Z,41.60
2019-04-22T11:34:49.110Z,42.00
2019-04-22T11:39:42.655Z,41.30
2019-04-22T11:44:37.150Z,41.00
2019-04-22T11:49:32.009Z,41.60
2019-04-22T11:54:25.365Z,41.60
2019-04-22T11:59:18.781Z,41.40
2019-04-22T12:04:13.707Z,39.80
2019-04-22T12:09:12.194Z,41.40
2019-04-22T12:14:06.227Z,40.20
2019-04-22T12:19:00.865Z,39.70
2019-04-22T12:23:55.006Z,39.50
2019-04-22T12:28:51.070Z,40.40
2019-04-22T12:33:45.396Z,40.20
2019-04-22T12:38:39.893Z,40.60
2019-04-22T12:43:33.694Z,40.00
2019-04-22T12:48:27.540Z,40.40
2019-04-22T12:53:24.105Z,39.70
2019-04-22T12:58:16.219Z,39.60
2019-04-22T13:03:11.055Z,38.80
2019-04-22T13:08:07.453Z,38.70
2019-04-22T13:13:00.961Z,39.50
2019-04-22T13:18:06.070Z,39.40
2019-04-22T13:22:50.562Z,39.40
2019-04-22T13:27:44.892Z,39.70
2019-04-22T13:32:38.822Z,38.90
2019-04-22T13:37:32.755Z,39.50
2019-04-22T13:42:27.580Z,39.40
2019-04-22T13:47:34.990Z,39.40
2019-04-22T13:52:48.589Z,39.40
2019-04-22T13:57:32.623Z,39.10
2019-04-22T14:02:46.474Z,38.20
2019-04-22T14:07:41.166Z,37.90
2019-04-22T14:12:35.305Z,38.40
2019-04-22T14:17:31.488Z,38.70
2019-04-22T14:22:26.263Z,39.20
2019-04-22T14:27:31.766Z,39.20
2019-04-22T14:32:19.331Z,39.00
2019-04-22T14:37:10.242Z,39.20
2019-04-22T14:42:27.016Z,39.40
2019-04-22T14:47:19.875Z,40.30
2019-04-22T14:52:16.401Z,39.20
2019-04-22T14:56:49.279Z,39.50
2019-04-22T15:01:43.521Z,39.20
2019-04-22T15:06:38.038Z,38.90
2019-04-22T15:11:44.870Z,39.10
2019-04-22T15:16:42.588Z,38.70
2019-04-22T15:21:36.716Z,39.10
2019-04-22T15:26:30.689Z,40.20
2019-04-22T15:31:24.311Z,41.10
2019-04-22T15:36:18.065Z,40.80
2019-04-22T15:41:12.505Z,41.40
2019-04-22T15:46:09.669Z,41.70
2019-04-22T15:51:04.703Z,41.90
2019-04-22T15:55:58.800Z,41.60
2019-04-22T16:01:04.186Z,41.80
2019-04-22T16:05:50.101Z,41.50
2019-04-22T16:10:43.992Z,41.70
2019-04-22T16:15:38.379Z,41.60
2019-04-22T16:20:32.179Z,41.80
2019-04-22T16:25:49.447Z,41.60
2019-04-22T16:30:43.596Z,41.90
2019-04-22T16:35:37.074Z,42.30
2019-04-22T16:40:30.565Z,42.70
2019-04-22T16:45:25.293Z,43.10
2019-04-22T16:50:18.984Z,43.00
2019-04-22T16:55:12.877Z,42.50
2019-04-22T17:00:08.899Z,43.70
2019-04-22T17:05:11.529Z,44.20
2019-04-22T17:10:08.068Z,44.30
2019-04-22T17:15:06.134Z,44.40
2019-04-22T17:19:57.685Z,44.90
2019-04-22T17:24:51.208Z,45.50
2019-04-22T17:29:44.573Z,45.80
2019-04-22T17:34:39.263Z,46.20
2019-04-22T17:39:45.366Z,46.60
2019-04-22T17:44:57.108Z,46.60
2019-04-22T17:49:57.937Z,46.90
2019-04-22T17:54:43.438Z,47.80
2019-04-22T17:59:45.219Z,47.40
2019-04-22T18:04:16.615Z,47.30
2019-04-22T18:09:57.942Z,47.70
2019-04-22T18:19:21.233Z,47.80
2019-04-22T18:24:09.340Z,48.20
2019-04-22T18:29:16.136Z,48.50
2019-04-22T18:34:04.105Z,48.60
2019-04-22T18:39:10.087Z,48.80
2019-04-22T18:44:06.173Z,48.50
2019-04-22T18:48:58.144Z,48.50
2019-04-22T18:54:19.735Z,48.70
2019-04-22T18:59:07.733Z,48.80
2019-04-22T19:03:58.222Z,48.70
2019-04-22T19:09:10.562Z,48.50
2019-04-22T19:14:07.484Z,48.80
2019-04-22T19:19:21.209Z,49.20
2019-04-22T19:23:53.999Z,49.60
2019-04-22T19:28:49.484Z,49.40
2019-04-22T19:33:49.294Z,48.80
2019-04-22T19:38:28.646Z,48.90
2019-04-22T19:43:35.618Z,48.90
2019-04-22T19:53:32.091Z,49.00
2019-04-22T19:58:18.257Z,49.00
2019-04-22T20:03:42.717Z,48.50
2019-04-22T20:08:30.236Z,48.70
2019-04-22T20:13:33.529Z,48.80
2019-04-22T20:23:15.910Z,48.20
2019-04-22T20:28:15.051Z,48.00
2019-04-22T20:33:06.408Z,48.20
2019-04-22T20:38:04.247Z,47.90
2019-04-22T20:43:01.685Z,48.00
2019-04-22T20:47:48.999Z,48.20
2019-04-22T20:57:49.525Z,48.70
2019-04-22T21:02:32.616Z,48.80
2019-04-22T21:07:32.514Z,48.90
2019-04-22T21:12:27.782Z,49.20
2019-04-22T21:17:31.171Z,49.40
2019-04-22T21:22:27.398Z,49.80
2019-04-22T21:27:45.638Z,50.10
2019-04-22T21:32:21.743Z,49.80
2019-04-22T21:37:33.024Z,49.90
2019-04-22T21:42:14.233Z,50.10
2019-04-22T21:47:14.582Z,50.30
2019-04-22T21:52:05.400Z,50.60
2019-04-22T22:02:11.776Z,51.20
2019-04-22T22:06:54.566Z,51.50
2019-04-22T22:11:52.623Z,51.80
2019-04-22T22:16:47.335Z,52.10
2019-04-22T22:22:05.979Z,52.60
2019-04-22T22:26:44.868Z,53.00
2019-04-22T22:31:47.269Z,53.40
2019-04-22T22:36:31.081Z,53.70
2019-04-22T22:41:10.081Z,53.90
2019-04-22T22:46:17.748Z,54.30
2019-04-22T22:51:32.541Z,54.50
2019-04-22T22:56:18.135Z,54.60
2019-04-22T23:01:04.198Z,54.90
2019-04-22T23:06:12.457Z,55.20
2019-04-22T23:11:05.091Z,55.70
2019-04-22T23:15:50.759Z,55.90
2019-04-22T23:20:38.249Z,56.10
2019-04-22T23:25:54.989Z,56.20
2019-04-22T23:30:58.045Z,56.80
2019-04-22T23:36:23.704Z,56.60
2019-04-22T23:46:28.471Z,56.80
2019-04-22T23:51:26.474Z,56.60
2019-04-22T23:56:27.005Z,56.20
